createdAt,value
2023-02-08T05:26:59.010Z,93.99
2023-02-08T05:32:00.673Z,94.32
2023-02-08T05:37:02.448Z,94.34
2023-02-08T05:42:04.126Z,94.43
2023-02-08T05:47:05.856Z,94.77
2023-02-08T05:52:07.511Z,94.63
2023-02-08T05:57:09.376Z,94.90
2023-02-08T06:02:11.078Z,94.87
2023-02-08T06:07:12.780Z,94.65
2023-02-08T06:12:14.493Z,95.24
2023-02-08T06:17:16.184Z,95.19
2023-02-08T06:22:17.859Z,95.17
2023-02-08T06:27:19.529Z,94.91
2023-02-08T06:32:21.557Z,94.71
2023-02-08T06:37:23.674Z,94.40
2023-02-08T06:42:26.739Z,94.18
2023-02-08T06:47:28.535Z,94.06
2023-02-08T06:52:30.355Z,93.97
2023-02-08T06:57:32.300Z,93.65
2023-02-08T07:02:34.091Z,93.78
2023-02-08T07:07:35.735Z,93.96
2023-02-08T07:12:37.750Z,93.82
2023-02-08T07:17:39.699Z,94.56
2023-02-08T07:22:42.202Z,94.69
2023-02-08T07:27:43.966Z,94.93
2023-02-08T07:32:45.568Z,94.89
2023-02-08T07:37:48.655Z,94.24
2023-02-08T07:42:50.437Z,94.23
2023-02-08T07:47:53.870Z,93.72
2023-02-08T07:52:55.575Z,93.24
2023-02-08T07:57:57.453Z,93.03
2023-02-08T08:02:59.520Z,92.67
2023-02-08T08:08:01.116Z,92.01
2023-02-08T08:13:02.816Z,92.59
2023-02-08T08:18:04.496Z,94.02
2023-02-08T08:23:06.453Z,94.87
2023-02-08T08:28:08.781Z,95.21
2023-02-08T08:33:11.300Z,95.72
2023-02-08T08:38:13.834Z,95.78
2023-02-08T08:43:16.146Z,95.76
2023-02-08T08:48:18.094Z,96.17
2023-02-08T08:53:22.966Z,96.45
2023-02-08T08:58:24.653Z,96.77
2023-02-08T09:03:27.594Z,96.47
2023-02-08T09:08:29.649Z,95.76
2023-02-08T09:13:31.416Z,95.91
2023-02-08T09:18:33.128Z,95.33
2023-02-08T09:23:34.929Z,94.46
2023-02-08T09:28:37.125Z,94.31
2023-02-08T09:33:39.151Z,94.08
2023-02-08T09:38:41.829Z,93.94
2023-02-08T09:44:05.251Z,92.78
2023-02-08T09:49:14.323Z,92.61
2023-02-08T09:54:24.307Z,92.80
2023-02-08T09:59:32.341Z,92.59
2023-02-08T10:05:01.796Z,92.34
2023-02-08T10:10:06.757Z,91.42
2023-02-08T10:15:33.614Z,91.85
2023-02-08T10:21:00.042Z,92.16
2023-02-08T10:26:19.481Z,90.38
2023-02-08T10:32:02.751Z,89.80
2023-02-08T10:37:12.914Z,89.97
2023-02-08T10:42:20.412Z,89.82
2023-02-08T10:47:28.641Z,88.87
2023-02-08T10:52:31.558Z,88.58
2023-02-08T10:57:35.925Z,88.16
2023-02-08T11:02:42.572Z,86.63
2023-02-08T11:07:44.302Z,84.97
2023-02-08T11:13:05.727Z,84.29
2023-02-08T11:18:15.545Z,85.18
2023-02-08T11:23:32.360Z,83.70
2023-02-08T11:28:34.087Z,83.51
2023-02-08T11:33:36.961Z,82.64
2023-02-08T11:38:42.564Z,82.34
2023-02-08T11:44:09.732Z,81.42
2023-02-08T11:49:23.628Z,81.08
2023-02-08T11:54:41.468Z,80.12
2023-02-08T11:59:43.206Z,79.42
2023-02-08T12:04:45.101Z,78.75
2023-02-08T12:10:03.699Z,77.73
2023-02-08T12:15:45.018Z,77.80
2023-02-08T12:21:12.237Z,78.62
2023-02-08T12:26:35.917Z,75.63
2023-02-08T12:31:44.765Z,75.42
2023-02-08T12:37:34.027Z,75.66
2023-02-08T12:43:14.839Z,75.38
2023-02-08T12:48:46.641Z,74.46
2023-02-08T12:53:59.877Z,74.77
2023-02-08T12:59:13.087Z,74.43
2023-02-08T13:04:22.428Z,72.83
2023-02-08T13:09:35.228Z,72.76
2023-02-08T13:14:49.271Z,73.43
2023-02-08T13:20:07.569Z,72.87
2023-02-08T13:25:36.794Z,73.29
2023-02-08T13:30:40.295Z,73.53
2023-02-08T13:35:42.551Z,72.98
2023-02-08T13:40:45.697Z,71.82
2023-02-08T13:45:53.096Z,70.93
2023-02-08T13:50:57.015Z,70.33
2023-02-08T13:56:01.275Z,70.94
2023-02-08T14:01:08.899Z,71.64
2023-02-08T14:06:24.099Z,71.46
2023-02-08T14:11:45.472Z,70.57
2023-02-08T14:17:09.862Z,70.76
2023-02-08T14:22:11.593Z,71.26
2023-02-08T14:27:28.604Z,71.22
2023-02-08T14:32:32.832Z,71.72
2023-02-08T14:37:36.813Z,71.40
2023-02-08T14:43:13.245Z,72.41
2023-02-08T14:48:31.841Z,72.42
2023-02-08T14:53:56.091Z,72.86
2023-02-08T14:59:03.054Z,72.16
2023-02-08T15:04:05.134Z,72.56
2023-02-08T15:09:22.980Z,73.23
2023-02-08T15:14:25.285Z,73.69
2023-02-08T15:19:38.513Z,73.38
2023-02-08T15:24:49.838Z,73.43
2023-02-08T15:29:52.187Z,73.52
2023-02-08T15:35:02.668Z,73.97
2023-02-08T15:40:05.370Z,73.65
2023-02-08T15:45:24.512Z,74.22
2023-02-08T15:50:29.318Z,75.02
2023-02-08T15:55:36.210Z,75.64
2023-02-08T16:00:38.582Z,74.87
2023-02-08T16:05:40.298Z,75.03
2023-02-08T16:10:48.973Z,75.12
2023-02-08T16:16:03.799Z,75.21
2023-02-08T16:21:25.163Z,75.64
2023-02-08T16:26:37.370Z,75.43
2023-02-08T16:31:46.730Z,75.97
2023-02-08T16:36:51.304Z,76.12
2023-02-08T16:41:54.504Z,76.73
2023-02-08T16:47:00.165Z,76.52
2023-02-08T16:52:02.409Z,76.73
2023-02-08T16:57:05.296Z,77.05
2023-02-08T17:02:12.071Z,76.99
2023-02-08T17:07:18.620Z,77.52
2023-02-08T17:12:22.772Z,77.31
2023-02-08T17:17:26.144Z,77.27
2023-02-08T17:22:28.878Z,77.67
2023-02-08T17:27:30.550Z,77.60
2023-02-08T17:32:32.236Z,77.57
2023-02-08T17:37:34.167Z,77.71
2023-02-08T17:42:35.859Z,77.73
2023-02-08T17:47:41.710Z,78.18
2023-02-08T17:52:43.356Z,78.46
2023-02-08T17:57:45.889Z,78.29
2023-02-08T18:02:50.152Z,78.16
2023-02-08T18:07:56.975Z,78.19
2023-02-08T18:12:59.925Z,78.64
2023-02-08T18:18:01.683Z,78.54
2023-02-08T18:23:04.668Z,78.42
2023-02-08T18:28:07.314Z,78.70
2023-02-08T18:33:12.423Z,79.42
2023-02-08T18:38:14.097Z,79.99
2023-02-08T18:43:17.484Z,80.06
2023-02-08T18:48:19.231Z,80.43
2023-02-08T18:53:20.919Z,80.22
2023-02-08T18:58:23.281Z,80.25
2023-02-08T19:03:24.959Z,80.48
2023-02-08T19:08:26.669Z,80.97
2023-02-08T19:13:28.374Z,81.13
2023-02-08T19:18:30.039Z,81.50
2023-02-08T19:23:31.908Z,81.94
2023-02-08T19:28:34.563Z,81.60
2023-02-08T19:33:37.737Z,82.34
2023-02-08T19:38:40.137Z,82.74
2023-02-08T19:43:42.010Z,82.73
2023-02-08T19:48:43.682Z,82.92
2023-02-08T19:53:46.204Z,83.08
2023-02-08T19:58:48.652Z,83.15
2023-02-08T20:03:50.767Z,83.51
2023-02-08T20:08:52.862Z,83.53
2023-02-08T20:13:56.621Z,83.57
2023-02-08T20:18:58.531Z,83.71
2023-02-08T20:24:01.307Z,83.89
2023-02-08T20:29:03.374Z,83.68
2023-02-08T20:34:07.494Z,84.18
2023-02-08T20:39:14.509Z,83.87
2023-02-08T20:44:18.399Z,83.64
2023-02-08T20:49:24.246Z,84.02
2023-02-08T20:54:25.960Z,84.11
